sensor_id;sensor_type;location;lat;lon;timestamp;P1;durP1;ratioP1;P2;durP2;ratioP2
15271;SDS011;7737;51.578;7.268;2023-11-19T00:00:35;2.45;;;2.03;;
15271;SDS011;7737;51.578;7.268;2023-11-19T00:03:02;3.28;;;1.98;;
15271;SDS011;7737;51.578;7.268;2023-11-19T00:05:31;4.35;;;2.17;;
15271;SDS011;7737;51.578;7.268;2023-11-19T00:07:58;3.05;;;2.45;;
15271;SDS011;7737;51.578;7.268;2023-11-19T00:10:25;2.58;;;2.38;;
15271;SDS011;7737;51.578;7.268;2023-11-19T00:12:51;4.45;;;2.63;;
15271;SDS011;7737;51.578;7.268;2023-11-19T00:15:18;2.40;;;2.20;;
15271;SDS011;7737;51.578;7.268;2023-11-19T00:17:45;5.28;;;2.55;;
15271;SDS011;7737;51.578;7.268;2023-11-19T00:20:13;3.22;;;2.92;;
15271;SDS011;7737;51.578;7.268;2023-11-19T00:22:41;3.72;;;3.15;;
15271;SDS011;7737;51.578;7.268;2023-11-19T00:25:08;3.97;;;3.20;;
15271;SDS011;7737;51.578;7.268;2023-11-19T00:27:35;3.97;;;3.58;;
15271;SDS011;7737;51.578;7.268;2023-11-19T00:30:02;4.47;;;4.07;;
15271;SDS011;7737;51.578;7.268;2023-11-19T00:32:30;4.75;;;4.35;;
15271;SDS011;7737;51.578;7.268;2023-11-19T00:34:57;4.40;;;4.00;;
15271;SDS011;7737;51.578;7.268;2023-11-19T00:37:24;5.18;;;4.68;;
15271;SDS011;7737;51.578;7.268;2023-11-19T00:39:52;4.97;;;4.57;;
15271;SDS011;7737;51.578;7.268;2023-11-19T00:42:18;5.68;;;4.85;;
15271;SDS011;7737;51.578;7.268;2023-11-19T00:44:45;5.60;;;5.10;;
15271;SDS011;7737;51.578;7.268;2023-11-19T00:47:12;5.85;;;5.10;;
15271;SDS011;7737;51.578;7.268;2023-11-19T00:49:38;5.57;;;5.07;;
15271;SDS011;7737;51.578;7.268;2023-11-19T00:52:05;5.93;;;5.28;;
15271;SDS011;7737;51.578;7.268;2023-11-19T00:54:32;6.05;;;5.15;;
15271;SDS011;7737;51.578;7.268;2023-11-19T00:57:00;7.25;;;5.43;;
15271;SDS011;7737;51.578;7.268;2023-11-19T00:59:27;6.47;;;5.50;;
15271;SDS011;7737;51.578;7.268;2023-11-19T01:01:54;7.07;;;5.97;;
15271;SDS011;7737;51.578;7.268;2023-11-19T01:04:21;6.97;;;6.00;;
15271;SDS011;7737;51.578;7.268;2023-11-19T01:06:49;6.40;;;5.85;;
15271;SDS011;7737;51.578;7.268;2023-11-19T01:09:15;7.00;;;6.13;;
15271;SDS011;7737;51.578;7.268;2023-11-19T01:11:42;7.15;;;6.50;;
15271;SDS011;7737;51.578;7.268;2023-11-19T01:14:10;6.20;;;5.65;;
15271;SDS011;7737;51.578;7.268;2023-11-19T01:16:36;6.95;;;6.25;;
15271;SDS011;7737;51.578;7.268;2023-11-19T01:19:03;6.97;;;6.28;;
15271;SDS011;7737;51.578;7.268;2023-11-19T01:21:30;7.43;;;6.20;;
15271;SDS011;7737;51.578;7.268;2023-11-19T01:23:57;7.30;;;6.60;;
15271;SDS011;7737;51.578;7.268;2023-11-19T01:26:23;6.78;;;6.10;;
15271;SDS011;7737;51.578;7.268;2023-11-19T01:28:50;7.50;;;6.68;;
15271;SDS011;7737;51.578;7.268;2023-11-19T01:31:19;7.95;;;6.55;;
15271;SDS011;7737;51.578;7.268;2023-11-19T01:33:45;7.32;;;6.72;;
15271;SDS011;7737;51.578;7.268;2023-11-19T01:36:13;8.88;;;7.45;;
15271;SDS011;7737;51.578;7.268;2023-11-19T01:38:39;7.78;;;6.35;;
15271;SDS011;7737;51.578;7.268;2023-11-19T01:41:06;7.30;;;6.63;;
15271;SDS011;7737;51.578;7.268;2023-11-19T01:43:33;7.00;;;6.30;;
15271;SDS011;7737;51.578;7.268;2023-11-19T01:46:00;8.43;;;6.30;;
15271;SDS011;7737;51.578;7.268;2023-11-19T01:48:28;6.32;;;5.78;;
15271;SDS011;7737;51.578;7.268;2023-11-19T01:50:56;5.95;;;5.20;;
15271;SDS011;7737;51.578;7.268;2023-11-19T01:53:23;7.38;;;5.15;;
15271;SDS011;7737;51.578;7.268;2023-11-19T01:55:50;4.88;;;4.40;;
15271;SDS011;7737;51.578;7.268;2023-11-19T01:58:18;4.65;;;4.22;;
15271;SDS011;7737;51.578;7.268;2023-11-19T02:00:45;4.63;;;3.97;;
15271;SDS011;7737;51.578;7.268;2023-11-19T02:03:12;4.55;;;4.15;;
15271;SDS011;7737;51.578;7.268;2023-11-19T02:05:41;4.15;;;3.75;;
15271;SDS011;7737;51.578;7.268;2023-11-19T02:08:08;3.50;;;3.20;;
15271;SDS011;7737;51.578;7.268;2023-11-19T02:10:35;4.25;;;3.85;;
15271;SDS011;7737;51.578;7.268;2023-11-19T02:13:02;4.40;;;3.88;;
15271;SDS011;7737;51.578;7.268;2023-11-19T02:15:30;4.60;;;3.88;;
15271;SDS011;7737;51.578;7.268;2023-11-19T02:17:57;4.78;;;4.15;;
15271;SDS011;7737;51.578;7.268;2023-11-19T02:20:23;4.10;;;3.70;;
15271;SDS011;7737;51.578;7.268;2023-11-19T02:22:52;4.72;;;3.83;;
15271;SDS011;7737;51.578;7.268;2023-11-19T02:25:19;4.35;;;3.95;;
15271;SDS011;7737;51.578;7.268;2023-11-19T02:27:53;5.85;;;4.07;;
15271;SDS011;7737;51.578;7.268;2023-11-19T02:30:22;6.20;;;4.00;;
15271;SDS011;7737;51.578;7.268;2023-11-19T02:32:51;4.47;;;4.05;;
15271;SDS011;7737;51.578;7.268;2023-11-19T02:35:18;4.90;;;3.97;;
15271;SDS011;7737;51.578;7.268;2023-11-19T02:37:46;5.65;;;4.20;;
15271;SDS011;7737;51.578;7.268;2023-11-19T02:40:13;6.45;;;4.22;;
15271;SDS011;7737;51.578;7.268;2023-11-19T02:42:40;5.80;;;4.18;;
15271;SDS011;7737;51.578;7.268;2023-11-19T02:45:08;5.50;;;4.25;;
15271;SDS011;7737;51.578;7.268;2023-11-19T02:47:39;5.97;;;4.65;;
15271;SDS011;7737;51.578;7.268;2023-11-19T02:50:06;9.35;;;4.75;;
15271;SDS011;7737;51.578;7.268;2023-11-19T02:52:38;6.50;;;4.45;;
15271;SDS011;7737;51.578;7.268;2023-11-19T02:55:06;6.82;;;4.00;;
15271;SDS011;7737;51.578;7.268;2023-11-19T02:57:35;6.20;;;3.65;;
15271;SDS011;7737;51.578;7.268;2023-11-19T03:00:02;7.43;;;3.65;;
15271;SDS011;7737;51.578;7.268;2023-11-19T03:02:39;5.40;;;3.25;;
15271;SDS011;7737;51.578;7.268;2023-11-19T03:05:10;9.20;;;3.33;;
15271;SDS011;7737;51.578;7.268;2023-11-19T03:07:36;6.55;;;3.35;;
15271;SDS011;7737;51.578;7.268;2023-11-19T03:10:03;9.55;;;3.22;;
15271;SDS011;7737;51.578;7.268;2023-11-19T03:12:31;7.00;;;3.03;;
15271;SDS011;7737;51.578;7.268;2023-11-19T03:14:58;5.20;;;3.05;;
15271;SDS011;7737;51.578;7.268;2023-11-19T03:17:24;8.40;;;3.00;;
15271;SDS011;7737;51.578;7.268;2023-11-19T03:19:53;6.28;;;2.88;;
15271;SDS011;7737;51.578;7.268;2023-11-19T03:22:19;8.15;;;3.15;;
15271;SDS011;7737;51.578;7.268;2023-11-19T03:24:46;6.65;;;2.95;;
15271;SDS011;7737;51.578;7.268;2023-11-19T03:27:12;6.38;;;2.90;;
15271;SDS011;7737;51.578;7.268;2023-11-19T03:29:39;8.25;;;3.47;;
15271;SDS011;7737;51.578;7.268;2023-11-19T03:32:05;8.05;;;2.75;;
15271;SDS011;7737;51.578;7.268;2023-11-19T03:34:32;7.93;;;2.97;;
15271;SDS011;7737;51.578;7.268;2023-11-19T03:37:00;11.00;;;3.70;;
15271;SDS011;7737;51.578;7.268;2023-11-19T03:39:26;7.43;;;2.97;;
15271;SDS011;7737;51.578;7.268;2023-11-19T03:41:54;11.85;;;3.78;;
15271;SDS011;7737;51.578;7.268;2023-11-19T03:44:21;8.57;;;3.40;;
15271;SDS011;7737;51.578;7.268;2023-11-19T03:46:47;10.25;;;3.40;;
15271;SDS011;7737;51.578;7.268;2023-11-19T03:49:14;9.52;;;3.17;;
15271;SDS011;7737;51.578;7.268;2023-11-19T03:51:40;10.40;;;3.30;;
15271;SDS011;7737;51.578;7.268;2023-11-19T03:54:08;11.38;;;3.50;;
15271;SDS011;7737;51.578;7.268;2023-11-19T03:56:34;11.13;;;4.13;;
15271;SDS011;7737;51.578;7.268;2023-11-19T03:59:01;10.68;;;3.60;;
15271;SDS011;7737;51.578;7.268;2023-11-19T04:01:27;9.13;;;3.40;;
15271;SDS011;7737;51.578;7.268;2023-11-19T04:03:54;13.38;;;3.28;;
15271;SDS011;7737;51.578;7.268;2023-11-19T04:06:21;11.25;;;3.15;;
15271;SDS011;7737;51.578;7.268;2023-11-19T04:08:48;10.43;;;2.88;;
15271;SDS011;7737;51.578;7.268;2023-11-19T04:11:16;16.02;;;3.22;;
15271;SDS011;7737;51.578;7.268;2023-11-19T04:13:42;14.35;;;3.35;;
15271;SDS011;7737;51.578;7.268;2023-11-19T04:16:09;10.27;;;2.97;;
15271;SDS011;7737;51.578;7.268;2023-11-19T04:18:35;12.35;;;3.08;;
15271;SDS011;7737;51.578;7.268;2023-11-19T04:21:05;13.65;;;3.53;;
15271;SDS011;7737;51.578;7.268;2023-11-19T04:23:32;15.25;;;3.65;;
15271;SDS011;7737;51.578;7.268;2023-11-19T04:26:01;11.13;;;2.92;;
15271;SDS011;7737;51.578;7.268;2023-11-19T04:28:30;10.05;;;2.97;;
15271;SDS011;7737;51.578;7.268;2023-11-19T04:30:57;15.15;;;3.50;;
15271;SDS011;7737;51.578;7.268;2023-11-19T04:33:23;9.63;;;3.22;;
15271;SDS011;7737;51.578;7.268;2023-11-19T04:35:50;12.63;;;3.30;;
15271;SDS011;7737;51.578;7.268;2023-11-19T04:38:16;12.50;;;3.45;;
15271;SDS011;7737;51.578;7.268;2023-11-19T04:40:43;12.77;;;3.25;;
15271;SDS011;7737;51.578;7.268;2023-11-19T04:43:10;15.10;;;3.95;;
15271;SDS011;7737;51.578;7.268;2023-11-19T04:45:37;14.18;;;3.50;;
15271;SDS011;7737;51.578;7.268;2023-11-19T04:48:04;14.43;;;3.25;;
15271;SDS011;7737;51.578;7.268;2023-11-19T04:50:31;14.18;;;3.42;;
15271;SDS011;7737;51.578;7.268;2023-11-19T04:52:57;15.27;;;2.95;;
15271;SDS011;7737;51.578;7.268;2023-11-19T04:55:25;12.55;;;3.25;;
15271;SDS011;7737;51.578;7.268;2023-11-19T04:57:53;11.48;;;3.28;;
15271;SDS011;7737;51.578;7.268;2023-11-19T05:00:20;13.20;;;3.05;;
15271;SDS011;7737;51.578;7.268;2023-11-19T05:02:48;17.25;;;3.42;;
15271;SDS011;7737;51.578;7.268;2023-11-19T05:05:15;16.42;;;4.15;;
15271;SDS011;7737;51.578;7.268;2023-11-19T05:07:42;14.10;;;3.40;;
15271;SDS011;7737;51.578;7.268;2023-11-19T05:10:09;13.45;;;3.42;;
15271;SDS011;7737;51.578;7.268;2023-11-19T05:12:35;16.58;;;3.47;;
15271;SDS011;7737;51.578;7.268;2023-11-19T05:15:02;12.07;;;3.67;;
15271;SDS011;7737;51.578;7.268;2023-11-19T05:17:29;18.45;;;3.58;;
15271;SDS011;7737;51.578;7.268;2023-11-19T05:19:57;14.77;;;3.90;;
15271;SDS011;7737;51.578;7.268;2023-11-19T05:22:24;21.55;;;4.40;;
15271;SDS011;7737;51.578;7.268;2023-11-19T05:24:51;16.52;;;4.03;;
15271;SDS011;7737;51.578;7.268;2023-11-19T05:27:17;17.63;;;3.50;;
15271;SDS011;7737;51.578;7.268;2023-11-19T05:29:44;19.70;;;3.95;;
15271;SDS011;7737;51.578;7.268;2023-11-19T05:32:10;17.88;;;3.85;;
15271;SDS011;7737;51.578;7.268;2023-11-19T05:34:37;17.65;;;4.45;;
15271;SDS011;7737;51.578;7.268;2023-11-19T05:37:05;26.27;;;4.57;;
15271;SDS011;7737;51.578;7.268;2023-11-19T05:39:32;18.35;;;4.03;;
15271;SDS011;7737;51.578;7.268;2023-11-19T05:41:58;19.15;;;4.13;;
15271;SDS011;7737;51.578;7.268;2023-11-19T05:44:25;20.50;;;5.30;;
15271;SDS011;7737;51.578;7.268;2023-11-19T05:46:51;17.00;;;4.13;;
15271;SDS011;7737;51.578;7.268;2023-11-19T05:49:18;18.67;;;4.15;;
15271;SDS011;7737;51.578;7.268;2023-11-19T05:51:44;21.52;;;5.18;;
15271;SDS011;7737;51.578;7.268;2023-11-19T05:54:13;16.15;;;3.88;;
15271;SDS011;7737;51.578;7.268;2023-11-19T05:56:40;20.02;;;3.72;;
15271;SDS011;7737;51.578;7.268;2023-11-19T05:59:06;19.33;;;4.25;;
15271;SDS011;7737;51.578;7.268;2023-11-19T06:01:39;20.30;;;4.25;;
15271;SDS011;7737;51.578;7.268;2023-11-19T06:04:07;16.10;;;3.60;;
15271;SDS011;7737;51.578;7.268;2023-11-19T06:06:33;18.05;;;4.28;;
15271;SDS011;7737;51.578;7.268;2023-11-19T06:09:00;17.67;;;4.07;;
15271;SDS011;7737;51.578;7.268;2023-11-19T06:11:32;17.15;;;4.13;;
15271;SDS011;7737;51.578;7.268;2023-11-19T06:14:00;21.77;;;4.70;;
15271;SDS011;7737;51.578;7.268;2023-11-19T06:16:27;17.00;;;4.20;;
15271;SDS011;7737;51.578;7.268;2023-11-19T06:18:54;21.20;;;4.45;;
15271;SDS011;7737;51.578;7.268;2023-11-19T06:21:20;19.73;;;4.50;;
15271;SDS011;7737;51.578;7.268;2023-11-19T06:23:47;19.15;;;4.65;;
15271;SDS011;7737;51.578;7.268;2023-11-19T06:26:14;17.92;;;4.32;;
15271;SDS011;7737;51.578;7.268;2023-11-19T06:28:42;20.80;;;4.43;;
15271;SDS011;7737;51.578;7.268;2023-11-19T06:31:08;16.52;;;4.10;;
15271;SDS011;7737;51.578;7.268;2023-11-19T06:33:35;23.73;;;4.50;;
15271;SDS011;7737;51.578;7.268;2023-11-19T06:36:01;19.67;;;4.20;;
15271;SDS011;7737;51.578;7.268;2023-11-19T06:38:28;20.77;;;4.88;;
15271;SDS011;7737;51.578;7.268;2023-11-19T06:40:55;16.75;;;4.18;;
15271;SDS011;7737;51.578;7.268;2023-11-19T06:43:21;20.30;;;4.47;;
15271;SDS011;7737;51.578;7.268;2023-11-19T06:45:49;18.52;;;3.50;;
15271;SDS011;7737;51.578;7.268;2023-11-19T06:48:15;20.35;;;4.07;;
15271;SDS011;7737;51.578;7.268;2023-11-19T06:50:42;18.80;;;4.35;;
15271;SDS011;7737;51.578;7.268;2023-11-19T06:53:08;22.88;;;4.15;;
15271;SDS011;7737;51.578;7.268;2023-11-19T06:55:35;21.42;;;4.10;;
15271;SDS011;7737;51.578;7.268;2023-11-19T06:58:02;24.23;;;4.30;;
15271;SDS011;7737;51.578;7.268;2023-11-19T07:00:28;21.33;;;4.70;;
15271;SDS011;7737;51.578;7.268;2023-11-19T07:02:58;19.65;;;4.38;;
15271;SDS011;7737;51.578;7.268;2023-11-19T07:05:25;19.80;;;3.92;;
15271;SDS011;7737;51.578;7.268;2023-11-19T07:07:52;21.38;;;4.43;;
15271;SDS011;7737;51.578;7.268;2023-11-19T07:10:19;18.65;;;4.03;;
15271;SDS011;7737;51.578;7.268;2023-11-19T07:12:46;17.23;;;4.55;;
15271;SDS011;7737;51.578;7.268;2023-11-19T07:15:15;16.27;;;3.75;;
15271;SDS011;7737;51.578;7.268;2023-11-19T07:17:42;19.58;;;4.18;;
15271;SDS011;7737;51.578;7.268;2023-11-19T07:20:11;18.92;;;4.55;;
15271;SDS011;7737;51.578;7.268;2023-11-19T07:22:41;14.82;;;4.18;;
15271;SDS011;7737;51.578;7.268;2023-11-19T07:25:10;19.63;;;3.85;;
15271;SDS011;7737;51.578;7.268;2023-11-19T07:27:38;21.13;;;4.65;;
15271;SDS011;7737;51.578;7.268;2023-11-19T07:30:05;19.73;;;4.80;;
15271;SDS011;7737;51.578;7.268;2023-11-19T07:32:33;22.48;;;4.53;;
15271;SDS011;7737;51.578;7.268;2023-11-19T07:35:00;23.63;;;4.75;;
15271;SDS011;7737;51.578;7.268;2023-11-19T07:37:28;20.80;;;4.57;;
15271;SDS011;7737;51.578;7.268;2023-11-19T07:39:54;23.00;;;4.72;;
15271;SDS011;7737;51.578;7.268;2023-11-19T07:42:21;23.67;;;5.20;;
15271;SDS011;7737;51.578;7.268;2023-11-19T07:44:49;20.45;;;4.43;;
15271;SDS011;7737;51.578;7.268;2023-11-19T07:47:15;22.48;;;4.45;;
15271;SDS011;7737;51.578;7.268;2023-11-19T07:49:42;21.88;;;4.65;;
15271;SDS011;7737;51.578;7.268;2023-11-19T07:52:08;20.08;;;4.85;;
15271;SDS011;7737;51.578;7.268;2023-11-19T07:54:36;19.60;;;4.25;;
15271;SDS011;7737;51.578;7.268;2023-11-19T07:57:03;22.33;;;5.40;;
15271;SDS011;7737;51.578;7.268;2023-11-19T07:59:30;23.33;;;4.75;;
15271;SDS011;7737;51.578;7.268;2023-11-19T08:01:56;21.58;;;4.53;;
15271;SDS011;7737;51.578;7.268;2023-11-19T08:04:23;20.35;;;4.25;;
15271;SDS011;7737;51.578;7.268;2023-11-19T08:06:50;24.05;;;4.75;;
15271;SDS011;7737;51.578;7.268;2023-11-19T08:09:17;22.38;;;4.60;;
15271;SDS011;7737;51.578;7.268;2023-11-19T08:11:45;21.50;;;4.65;;
15271;SDS011;7737;51.578;7.268;2023-11-19T08:14:11;19.17;;;4.50;;
15271;SDS011;7737;51.578;7.268;2023-11-19T08:16:38;20.52;;;4.20;;
15271;SDS011;7737;51.578;7.268;2023-11-19T08:19:05;23.98;;;4.95;;
15271;SDS011;7737;51.578;7.268;2023-11-19T08:21:31;17.42;;;4.68;;
15271;SDS011;7737;51.578;7.268;2023-11-19T08:23:58;20.23;;;4.50;;
15271;SDS011;7737;51.578;7.268;2023-11-19T08:26:25;24.42;;;4.70;;
15271;SDS011;7737;51.578;7.268;2023-11-19T08:28:53;18.33;;;4.00;;
15271;SDS011;7737;51.578;7.268;2023-11-19T08:31:19;20.73;;;4.10;;
15271;SDS011;7737;51.578;7.268;2023-11-19T08:33:46;20.45;;;4.32;;
15271;SDS011;7737;51.578;7.268;2023-11-19T08:36:15;21.77;;;4.60;;
15271;SDS011;7737;51.578;7.268;2023-11-19T08:38:42;22.05;;;4.55;;
15271;SDS011;7737;51.578;7.268;2023-11-19T08:41:09;19.33;;;4.82;;
15271;SDS011;7737;51.578;7.268;2023-11-19T08:43:35;18.73;;;4.60;;
15271;SDS011;7737;51.578;7.268;2023-11-19T08:46:03;20.65;;;4.88;;
15271;SDS011;7737;51.578;7.268;2023-11-19T08:48:35;20.52;;;4.82;;
15271;SDS011;7737;51.578;7.268;2023-11-19T08:51:01;24.35;;;4.80;;
15271;SDS011;7737;51.578;7.268;2023-11-19T08:53:29;24.60;;;5.15;;
15271;SDS011;7737;51.578;7.268;2023-11-19T08:55:56;18.42;;;4.32;;
15271;SDS011;7737;51.578;7.268;2023-11-19T08:58:22;24.63;;;5.13;;
15271;SDS011;7737;51.578;7.268;2023-11-19T09:00:49;23.83;;;4.65;;
15271;SDS011;7737;51.578;7.268;2023-11-19T09:03:17;24.17;;;5.00;;
15271;SDS011;7737;51.578;7.268;2023-11-19T09:05:43;21.98;;;4.60;;
15271;SDS011;7737;51.578;7.268;2023-11-19T09:08:10;23.05;;;4.70;;
15271;SDS011;7737;51.578;7.268;2023-11-19T09:10:37;24.60;;;5.40;;
15271;SDS011;7737;51.578;7.268;2023-11-19T09:13:03;20.80;;;4.30;;
15271;SDS011;7737;51.578;7.268;2023-11-19T09:15:30;22.08;;;4.65;;
15271;SDS011;7737;51.578;7.268;2023-11-19T09:17:56;25.48;;;5.40;;
15271;SDS011;7737;51.578;7.268;2023-11-19T09:20:24;21.15;;;5.15;;
15271;SDS011;7737;51.578;7.268;2023-11-19T09:22:51;20.38;;;5.35;;
15271;SDS011;7737;51.578;7.268;2023-11-19T09:25:18;19.52;;;4.47;;
15271;SDS011;7737;51.578;7.268;2023-11-19T09:27:44;22.63;;;4.53;;
15271;SDS011;7737;51.578;7.268;2023-11-19T09:30:11;19.48;;;4.63;;
15271;SDS011;7737;51.578;7.268;2023-11-19T09:32:38;23.25;;;4.80;;
15271;SDS011;7737;51.578;7.268;2023-11-19T09:35:05;19.52;;;4.68;;
15271;SDS011;7737;51.578;7.268;2023-11-19T09:37:34;18.70;;;4.32;;
15271;SDS011;7737;51.578;7.268;2023-11-19T09:40:00;22.70;;;4.72;;
15271;SDS011;7737;51.578;7.268;2023-11-19T09:42:27;22.90;;;4.53;;
15271;SDS011;7737;51.578;7.268;2023-11-19T09:44:53;22.20;;;4.75;;
15271;SDS011;7737;51.578;7.268;2023-11-19T09:47:22;18.73;;;4.28;;
15271;SDS011;7737;51.578;7.268;2023-11-19T09:49:52;24.52;;;5.18;;
15271;SDS011;7737;51.578;7.268;2023-11-19T09:52:19;25.70;;;5.90;;
15271;SDS011;7737;51.578;7.268;2023-11-19T09:54:47;24.55;;;5.47;;
15271;SDS011;7737;51.578;7.268;2023-11-19T09:57:14;23.33;;;5.15;;
15271;SDS011;7737;51.578;7.268;2023-11-19T09:59:43;21.83;;;5.40;;
15271;SDS011;7737;51.578;7.268;2023-11-19T10:02:11;21.52;;;5.07;;
15271;SDS011;7737;51.578;7.268;2023-11-19T10:04:38;23.90;;;5.07;;
15271;SDS011;7737;51.578;7.268;2023-11-19T10:07:07;19.48;;;4.95;;
15271;SDS011;7737;51.578;7.268;2023-11-19T10:09:34;20.55;;;4.60;;
15271;SDS011;7737;51.578;7.268;2023-11-19T10:12:02;20.95;;;4.55;;
15271;SDS011;7737;51.578;7.268;2023-11-19T10:14:30;23.25;;;4.60;;
15271;SDS011;7737;51.578;7.268;2023-11-19T10:16:56;22.92;;;5.28;;
15271;SDS011;7737;51.578;7.268;2023-11-19T10:19:24;25.35;;;5.38;;
15271;SDS011;7737;51.578;7.268;2023-11-19T10:21:50;19.98;;;4.72;;
15271;SDS011;7737;51.578;7.268;2023-11-19T10:24:21;25.33;;;4.95;;
15271;SDS011;7737;51.578;7.268;2023-11-19T10:26:58;21.23;;;4.40;;
15271;SDS011;7737;51.578;7.268;2023-11-19T10:29:27;19.73;;;4.88;;
15271;SDS011;7737;51.578;7.268;2023-11-19T10:31:56;22.05;;;4.60;;
15271;SDS011;7737;51.578;7.268;2023-11-19T10:34:26;23.40;;;5.72;;
15271;SDS011;7737;51.578;7.268;2023-11-19T10:36:55;20.58;;;4.30;;
15271;SDS011;7737;51.578;7.268;2023-11-19T10:39:21;21.27;;;4.60;;
15271;SDS011;7737;51.578;7.268;2023-11-19T10:41:49;19.23;;;4.88;;
15271;SDS011;7737;51.578;7.268;2023-11-19T10:47:01;20.50;;;5.00;;
15271;SDS011;7737;51.578;7.268;2023-11-19T10:49:27;21.63;;;4.93;;
15271;SDS011;7737;51.578;7.268;2023-11-19T10:51:54;20.17;;;4.93;;
15271;SDS011;7737;51.578;7.268;2023-11-19T10:54:23;21.70;;;4.95;;
15271;SDS011;7737;51.578;7.268;2023-11-19T10:56:53;19.63;;;4.85;;
15271;SDS011;7737;51.578;7.268;2023-11-19T10:59:21;25.65;;;5.15;;
15271;SDS011;7737;51.578;7.268;2023-11-19T11:01:51;23.77;;;4.85;;
15271;SDS011;7737;51.578;7.268;2023-11-19T11:04:22;23.17;;;5.15;;
15271;SDS011;7737;51.578;7.268;2023-11-19T11:06:50;23.65;;;4.53;;
15271;SDS011;7737;51.578;7.268;2023-11-19T11:09:17;20.95;;;5.03;;
15271;SDS011;7737;51.578;7.268;2023-11-19T11:11:44;21.33;;;4.47;;
15271;SDS011;7737;51.578;7.268;2023-11-19T11:14:13;19.92;;;4.53;;
15271;SDS011;7737;51.578;7.268;2023-11-19T11:16:40;16.67;;;3.45;;
15271;SDS011;7737;51.578;7.268;2023-11-19T11:19:10;19.95;;;4.25;;
15271;SDS011;7737;51.578;7.268;2023-11-19T11:21:38;20.33;;;5.07;;
15271;SDS011;7737;51.578;7.268;2023-11-19T11:24:20;19.15;;;4.45;;
15271;SDS011;7737;51.578;7.268;2023-11-19T11:27:01;26.23;;;4.93;;
15271;SDS011;7737;51.578;7.268;2023-11-19T11:29:41;20.80;;;5.10;;
15271;SDS011;7737;51.578;7.268;2023-11-19T11:32:16;19.23;;;4.32;;
15271;SDS011;7737;51.578;7.268;2023-11-19T11:35:01;17.75;;;4.30;;
15271;SDS011;7737;51.578;7.268;2023-11-19T11:37:43;17.80;;;4.10;;
15271;SDS011;7737;51.578;7.268;2023-11-19T11:40:13;18.17;;;4.68;;
15271;SDS011;7737;51.578;7.268;2023-11-19T11:42:41;19.00;;;3.90;;
15271;SDS011;7737;51.578;7.268;2023-11-19T11:45:08;20.15;;;4.65;;
15271;SDS011;7737;51.578;7.268;2023-11-19T11:50:48;20.55;;;4.78;;
15271;SDS011;7737;51.578;7.268;2023-11-19T11:53:17;18.65;;;4.03;;
15271;SDS011;7737;51.578;7.268;2023-11-19T11:55:54;18.60;;;4.03;;
15271;SDS011;7737;51.578;7.268;2023-11-19T11:58:27;18.30;;;4.30;;
15271;SDS011;7737;51.578;7.268;2023-11-19T12:00:57;16.92;;;4.57;;
15271;SDS011;7737;51.578;7.268;2023-11-19T12:03:26;18.65;;;4.25;;
15271;SDS011;7737;51.578;7.268;2023-11-19T12:05:56;15.07;;;4.00;;
15271;SDS011;7737;51.578;7.268;2023-11-19T12:08:27;16.98;;;4.25;;
15271;SDS011;7737;51.578;7.268;2023-11-19T12:10:56;20.05;;;4.00;;
15271;SDS011;7737;51.578;7.268;2023-11-19T12:13:24;15.75;;;4.18;;
15271;SDS011;7737;51.578;7.268;2023-11-19T12:16:09;20.75;;;4.25;;
15271;SDS011;7737;51.578;7.268;2023-11-19T12:18:38;16.25;;;3.72;;
15271;SDS011;7737;51.578;7.268;2023-11-19T12:21:07;17.80;;;4.03;;
15271;SDS011;7737;51.578;7.268;2023-11-19T12:23:35;15.48;;;3.75;;
15271;SDS011;7737;51.578;7.268;2023-11-19T12:26:20;17.95;;;4.20;;
15271;SDS011;7737;51.578;7.268;2023-11-19T12:28:56;16.38;;;3.90;;
15271;SDS011;7737;51.578;7.268;2023-11-19T12:31:23;18.85;;;4.60;;
15271;SDS011;7737;51.578;7.268;2023-11-19T12:33:50;19.33;;;4.15;;
15271;SDS011;7737;51.578;7.268;2023-11-19T12:36:19;18.70;;;4.38;;
15271;SDS011;7737;51.578;7.268;2023-11-19T12:38:46;18.55;;;3.80;;
15271;SDS011;7737;51.578;7.268;2023-11-19T12:41:13;19.42;;;4.13;;
15271;SDS011;7737;51.578;7.268;2023-11-19T12:43:43;19.15;;;3.92;;
15271;SDS011;7737;51.578;7.268;2023-11-19T12:46:19;14.55;;;3.53;;
15271;SDS011;7737;51.578;7.268;2023-11-19T12:48:47;15.57;;;4.00;;
15271;SDS011;7737;51.578;7.268;2023-11-19T12:51:14;19.05;;;3.90;;
15271;SDS011;7737;51.578;7.268;2023-11-19T12:53:48;16.38;;;3.80;;
15271;SDS011;7737;51.578;7.268;2023-11-19T12:56:18;15.30;;;4.07;;
15271;SDS011;7737;51.578;7.268;2023-11-19T12:58:44;15.85;;;3.55;;
15271;SDS011;7737;51.578;7.268;2023-11-19T13:01:14;20.95;;;4.20;;
15271;SDS011;7737;51.578;7.268;2023-11-19T13:03:42;18.67;;;4.20;;
15271;SDS011;7737;51.578;7.268;2023-11-19T13:06:09;18.90;;;4.10;;
15271;SDS011;7737;51.578;7.268;2023-11-19T13:08:37;18.95;;;4.57;;
15271;SDS011;7737;51.578;7.268;2023-11-19T13:11:06;16.67;;;3.92;;
15271;SDS011;7737;51.578;7.268;2023-11-19T13:16:21;20.42;;;4.57;;
15271;SDS011;7737;51.578;7.268;2023-11-19T13:18:48;19.45;;;4.13;;
15271;SDS011;7737;51.578;7.268;2023-11-19T13:21:14;16.75;;;3.78;;
15271;SDS011;7737;51.578;7.268;2023-11-19T13:23:41;13.88;;;3.38;;
15271;SDS011;7737;51.578;7.268;2023-11-19T13:26:09;16.48;;;3.65;;
15271;SDS011;7737;51.578;7.268;2023-11-19T13:28:36;14.82;;;3.97;;
15271;SDS011;7737;51.578;7.268;2023-11-19T13:31:03;16.25;;;3.70;;
15271;SDS011;7737;51.578;7.268;2023-11-19T13:33:30;13.93;;;3.58;;
15271;SDS011;7737;51.578;7.268;2023-11-19T13:35:56;15.02;;;3.45;;
15271;SDS011;7737;51.578;7.268;2023-11-19T13:38:23;12.00;;;3.03;;
15271;SDS011;7737;51.578;7.268;2023-11-19T13:40:50;13.55;;;3.33;;
15271;SDS011;7737;51.578;7.268;2023-11-19T13:43:18;10.20;;;3.30;;
15271;SDS011;7737;51.578;7.268;2023-11-19T13:45:45;13.93;;;3.25;;
15271;SDS011;7737;51.578;7.268;2023-11-19T13:48:12;13.55;;;3.20;;
15271;SDS011;7737;51.578;7.268;2023-11-19T13:50:39;10.27;;;3.05;;
15271;SDS011;7737;51.578;7.268;2023-11-19T13:53:05;15.18;;;3.10;;
15271;SDS011;7737;51.578;7.268;2023-11-19T13:55:33;13.55;;;2.88;;
15271;SDS011;7737;51.578;7.268;2023-11-19T13:57:59;9.07;;;2.97;;
15271;SDS011;7737;51.578;7.268;2023-11-19T14:00:27;14.80;;;5.25;;
15271;SDS011;7737;51.578;7.268;2023-11-19T14:02:54;15.90;;;3.22;;
15271;SDS011;7737;51.578;7.268;2023-11-19T14:05:21;14.02;;;3.97;;
15271;SDS011;7737;51.578;7.268;2023-11-19T14:07:48;14.43;;;3.50;;
15271;SDS011;7737;51.578;7.268;2023-11-19T14:10:16;15.70;;;3.70;;
15271;SDS011;7737;51.578;7.268;2023-11-19T14:12:44;16.75;;;4.38;;
15271;SDS011;7737;51.578;7.268;2023-11-19T14:15:10;16.70;;;4.28;;
15271;SDS011;7737;51.578;7.268;2023-11-19T14:17:39;17.70;;;4.03;;
15271;SDS011;7737;51.578;7.268;2023-11-19T14:20:07;14.88;;;3.33;;
15271;SDS011;7737;51.578;7.268;2023-11-19T14:22:38;15.57;;;3.63;;
15271;SDS011;7737;51.578;7.268;2023-11-19T14:25:05;15.50;;;3.53;;
15271;SDS011;7737;51.578;7.268;2023-11-19T14:27:35;14.55;;;3.80;;
15271;SDS011;7737;51.578;7.268;2023-11-19T14:30:03;14.82;;;3.30;;
15271;SDS011;7737;51.578;7.268;2023-11-19T14:32:30;13.07;;;3.22;;
15271;SDS011;7737;51.578;7.268;2023-11-19T14:34:58;18.10;;;4.32;;
15271;SDS011;7737;51.578;7.268;2023-11-19T14:37:25;15.23;;;3.80;;
15271;SDS011;7737;51.578;7.268;2023-11-19T14:39:51;14.48;;;3.50;;
15271;SDS011;7737;51.578;7.268;2023-11-19T14:42:18;17.73;;;4.03;;
15271;SDS011;7737;51.578;7.268;2023-11-19T14:44:45;17.13;;;3.90;;
15271;SDS011;7737;51.578;7.268;2023-11-19T14:47:11;14.23;;;3.25;;
15271;SDS011;7737;51.578;7.268;2023-11-19T14:49:38;17.88;;;3.25;;
15271;SDS011;7737;51.578;7.268;2023-11-19T14:52:06;15.18;;;3.65;;
15271;SDS011;7737;51.578;7.268;2023-11-19T14:54:33;15.88;;;3.63;;
15271;SDS011;7737;51.578;7.268;2023-11-19T14:56:59;15.75;;;3.33;;
15271;SDS011;7737;51.578;7.268;2023-11-19T14:59:26;14.35;;;3.30;;
15271;SDS011;7737;51.578;7.268;2023-11-19T15:01:53;16.45;;;3.67;;